sensor_id;sensor_type;location;lat;lon;timestamp;P1;durP1;ratioP1;P2;durP2;ratioP2
39936;SDS011;27803;42.740;23.340;2022-12-18T00:01:27;17.53;;;11.30;;
39936;SDS011;27803;42.740;23.340;2022-12-18T00:03:56;15.13;;;10.03;;
39936;SDS011;27803;42.740;23.340;2022-12-18T00:06:23;11.90;;;8.53;;
39936;SDS011;27803;42.740;23.340;2022-12-18T00:08:49;14.20;;;10.33;;
39936;SDS011;27803;42.740;23.340;2022-12-18T00:11:16;15.77;;;11.37;;
39936;SDS011;27803;42.740;23.340;2022-12-18T00:13:43;16.60;;;10.57;;
39936;SDS011;27803;42.740;23.340;2022-12-18T00:16:11;14.53;;;10.67;;
39936;SDS011;27803;42.740;23.340;2022-12-18T00:18:38;15.00;;;10.47;;
39936;SDS011;27803;42.740;23.340;2022-12-18T00:21:04;14.03;;;11.37;;
39936;SDS011;27803;42.740;23.340;2022-12-18T00:23:31;13.10;;;9.57;;
39936;SDS011;27803;42.740;23.340;2022-12-18T00:25:59;11.77;;;10.13;;
39936;SDS011;27803;42.740;23.340;2022-12-18T00:28:28;14.23;;;9.73;;
39936;SDS011;27803;42.740;23.340;2022-12-18T00:31:03;12.40;;;10.07;;
39936;SDS011;27803;42.740;23.340;2022-12-18T00:33:30;11.70;;;9.33;;
39936;SDS011;27803;42.740;23.340;2022-12-18T00:36:02;13.20;;;10.17;;
39936;SDS011;27803;42.740;23.340;2022-12-18T00:38:29;12.50;;;9.80;;
39936;SDS011;27803;42.740;23.340;2022-12-18T00:40:54;12.57;;;10.10;;
39936;SDS011;27803;42.740;23.340;2022-12-18T00:43:20;14.73;;;10.00;;
39936;SDS011;27803;42.740;23.340;2022-12-18T00:45:45;15.03;;;10.37;;
39936;SDS011;27803;42.740;23.340;2022-12-18T00:48:11;12.07;;;9.70;;
39936;SDS011;27803;42.740;23.340;2022-12-18T00:50:36;13.13;;;11.60;;
39936;SDS011;27803;42.740;23.340;2022-12-18T00:53:01;14.97;;;11.30;;
39936;SDS011;27803;42.740;23.340;2022-12-18T00:55:27;13.93;;;10.67;;
39936;SDS011;27803;42.740;23.340;2022-12-18T00:57:52;12.20;;;9.47;;
39936;SDS011;27803;42.740;23.340;2022-12-18T01:00:18;11.63;;;10.07;;
39936;SDS011;27803;42.740;23.340;2022-12-18T01:02:43;15.27;;;11.07;;
39936;SDS011;27803;42.740;23.340;2022-12-18T01:05:10;13.13;;;10.17;;
39936;SDS011;27803;42.740;23.340;2022-12-18T01:07:37;14.53;;;11.27;;
39936;SDS011;27803;42.740;23.340;2022-12-18T01:10:04;13.70;;;10.20;;
39936;SDS011;27803;42.740;23.340;2022-12-18T01:12:30;13.03;;;10.60;;
39936;SDS011;27803;42.740;23.340;2022-12-18T01:14:56;11.97;;;10.10;;
39936;SDS011;27803;42.740;23.340;2022-12-18T01:17:22;14.63;;;10.50;;
39936;SDS011;27803;42.740;23.340;2022-12-18T01:19:47;14.43;;;10.97;;
39936;SDS011;27803;42.740;23.340;2022-12-18T01:22:13;14.83;;;10.50;;
39936;SDS011;27803;42.740;23.340;2022-12-18T01:24:38;12.90;;;10.17;;
39936;SDS011;27803;42.740;23.340;2022-12-18T01:27:04;12.97;;;10.20;;
39936;SDS011;27803;42.740;23.340;2022-12-18T01:29:29;14.73;;;10.87;;
39936;SDS011;27803;42.740;23.340;2022-12-18T01:31:55;16.37;;;10.73;;
39936;SDS011;27803;42.740;23.340;2022-12-18T01:34:22;14.43;;;11.17;;
39936;SDS011;27803;42.740;23.340;2022-12-18T01:36:48;15.57;;;10.43;;
39936;SDS011;27803;42.740;23.340;2022-12-18T01:39:14;16.47;;;12.63;;
39936;SDS011;27803;42.740;23.340;2022-12-18T01:41:40;15.67;;;11.63;;
39936;SDS011;27803;42.740;23.340;2022-12-18T01:49:59;14.17;;;11.17;;
39936;SDS011;27803;42.740;23.340;2022-12-18T01:52:28;13.20;;;10.60;;
39936;SDS011;27803;42.740;23.340;2022-12-18T01:54:55;15.57;;;11.83;;
39936;SDS011;27803;42.740;23.340;2022-12-18T01:57:21;14.33;;;11.10;;
39936;SDS011;27803;42.740;23.340;2022-12-18T01:59:51;13.20;;;10.13;;
39936;SDS011;27803;42.740;23.340;2022-12-18T02:02:19;12.60;;;9.57;;
39936;SDS011;27803;42.740;23.340;2022-12-18T02:04:45;14.33;;;9.70;;
39936;SDS011;27803;42.740;23.340;2022-12-18T02:07:14;12.13;;;9.87;;
39936;SDS011;27803;42.740;23.340;2022-12-18T02:09:55;14.30;;;10.33;;
39936;SDS011;27803;42.740;23.340;2022-12-18T02:12:32;13.30;;;10.23;;
39936;SDS011;27803;42.740;23.340;2022-12-18T02:28:42;10.40;;;8.50;;
39936;SDS011;27803;42.740;23.340;2022-12-18T02:31:14;12.43;;;8.87;;
39936;SDS011;27803;42.740;23.340;2022-12-18T02:33:43;13.27;;;9.07;;
39936;SDS011;27803;42.740;23.340;2022-12-18T02:36:10;12.27;;;9.13;;
39936;SDS011;27803;42.740;23.340;2022-12-18T02:38:39;12.17;;;9.23;;
39936;SDS011;27803;42.740;23.340;2022-12-18T02:41:07;13.27;;;9.27;;
39936;SDS011;27803;42.740;23.340;2022-12-18T02:43:32;13.27;;;9.40;;
39936;SDS011;27803;42.740;23.340;2022-12-18T02:45:59;11.97;;;9.33;;
39936;SDS011;27803;42.740;23.340;2022-12-18T02:48:30;11.70;;;8.70;;
39936;SDS011;27803;42.740;23.340;2022-12-18T02:51:31;12.23;;;9.13;;
39936;SDS011;27803;42.740;23.340;2022-12-18T02:53:58;11.60;;;8.97;;
39936;SDS011;27803;42.740;23.340;2022-12-18T02:56:33;13.27;;;9.67;;
39936;SDS011;27803;42.740;23.340;2022-12-18T02:59:19;13.07;;;10.00;;
39936;SDS011;27803;42.740;23.340;2022-12-18T03:01:54;12.70;;;8.90;;
39936;SDS011;27803;42.740;23.340;2022-12-18T03:04:23;13.23;;;10.10;;
39936;SDS011;27803;42.740;23.340;2022-12-18T03:06:55;10.10;;;8.60;;
39936;SDS011;27803;42.740;23.340;2022-12-18T03:09:34;14.00;;;9.00;;
39936;SDS011;27803;42.740;23.340;2022-12-18T03:12:14;13.90;;;9.83;;
39936;SDS011;27803;42.740;23.340;2022-12-18T03:15:34;13.20;;;9.20;;
39936;SDS011;27803;42.740;23.340;2022-12-18T03:17:36;13.03;;;9.37;;
39936;SDS011;27803;42.740;23.340;2022-12-18T03:20:08;14.17;;;10.03;;
39936;SDS011;27803;42.740;23.340;2022-12-18T03:22:39;12.20;;;9.17;;
39936;SDS011;27803;42.740;23.340;2022-12-18T03:25:09;13.27;;;10.07;;
39936;SDS011;27803;42.740;23.340;2022-12-18T03:27:38;12.00;;;9.30;;
39936;SDS011;27803;42.740;23.340;2022-12-18T03:30:10;14.17;;;10.47;;
39936;SDS011;27803;42.740;23.340;2022-12-18T03:35:12;13.33;;;9.97;;
39936;SDS011;27803;42.740;23.340;2022-12-18T03:37:41;13.33;;;9.70;;
39936;SDS011;27803;42.740;23.340;2022-12-18T03:40:07;14.33;;;10.40;;
39936;SDS011;27803;42.740;23.340;2022-12-18T03:42:56;12.67;;;9.00;;
39936;SDS011;27803;42.740;23.340;2022-12-18T03:45:29;11.43;;;8.63;;
39936;SDS011;27803;42.740;23.340;2022-12-18T03:48:04;13.20;;;9.40;;
39936;SDS011;27803;42.740;23.340;2022-12-18T03:53:22;13.50;;;9.73;;
39936;SDS011;27803;42.740;23.340;2022-12-18T03:55:57;14.10;;;9.97;;
39936;SDS011;27803;42.740;23.340;2022-12-18T03:58:25;13.83;;;10.40;;
39936;SDS011;27803;42.740;23.340;2022-12-18T04:00:55;13.27;;;9.70;;
39936;SDS011;27803;42.740;23.340;2022-12-18T04:03:24;15.17;;;11.00;;
39936;SDS011;27803;42.740;23.340;2022-12-18T04:05:52;15.07;;;10.93;;
39936;SDS011;27803;42.740;23.340;2022-12-18T04:08:20;14.17;;;10.03;;
39936;SDS011;27803;42.740;23.340;2022-12-18T04:10:47;15.67;;;10.83;;
39936;SDS011;27803;42.740;23.340;2022-12-18T04:13:12;13.50;;;10.00;;
39936;SDS011;27803;42.740;23.340;2022-12-18T04:15:47;14.83;;;10.37;;
39936;SDS011;27803;42.740;23.340;2022-12-18T04:18:12;16.03;;;11.33;;
39936;SDS011;27803;42.740;23.340;2022-12-18T04:20:38;16.37;;;11.60;;
39936;SDS011;27803;42.740;23.340;2022-12-18T04:23:03;17.57;;;12.47;;
39936;SDS011;27803;42.740;23.340;2022-12-18T04:25:28;15.90;;;11.67;;
39936;SDS011;27803;42.740;23.340;2022-12-18T04:27:54;19.23;;;12.53;;
39936;SDS011;27803;42.740;23.340;2022-12-18T04:30:19;18.47;;;12.90;;
39936;SDS011;27803;42.740;23.340;2022-12-18T04:32:44;19.27;;;12.17;;
39936;SDS011;27803;42.740;23.340;2022-12-18T04:35:10;17.07;;;12.83;;
39936;SDS011;27803;42.740;23.340;2022-12-18T04:37:36;17.03;;;12.27;;
39936;SDS011;27803;42.740;23.340;2022-12-18T04:40:02;19.50;;;13.30;;
39936;SDS011;27803;42.740;23.340;2022-12-18T04:42:28;19.50;;;13.00;;
39936;SDS011;27803;42.740;23.340;2022-12-18T04:44:53;18.10;;;13.20;;
39936;SDS011;27803;42.740;23.340;2022-12-18T04:47:19;17.40;;;13.07;;
39936;SDS011;27803;42.740;23.340;2022-12-18T04:49:44;18.43;;;13.53;;
39936;SDS011;27803;42.740;23.340;2022-12-18T04:52:09;18.00;;;13.17;;
39936;SDS011;27803;42.740;23.340;2022-12-18T04:54:35;16.80;;;12.00;;
39936;SDS011;27803;42.740;23.340;2022-12-18T04:57:00;19.73;;;13.23;;
39936;SDS011;27803;42.740;23.340;2022-12-18T04:59:25;21.20;;;13.97;;
39936;SDS011;27803;42.740;23.340;2022-12-18T05:01:51;19.20;;;13.40;;
39936;SDS011;27803;42.740;23.340;2022-12-18T05:04:16;18.63;;;13.10;;
39936;SDS011;27803;42.740;23.340;2022-12-18T05:06:42;19.90;;;13.57;;
39936;SDS011;27803;42.740;23.340;2022-12-18T05:09:07;18.70;;;13.00;;
39936;SDS011;27803;42.740;23.340;2022-12-18T05:11:32;20.13;;;12.93;;
39936;SDS011;27803;42.740;23.340;2022-12-18T05:13:58;19.93;;;12.83;;
39936;SDS011;27803;42.740;23.340;2022-12-18T05:16:23;17.63;;;13.13;;
39936;SDS011;27803;42.740;23.340;2022-12-18T05:18:49;21.43;;;14.00;;
39936;SDS011;27803;42.740;23.340;2022-12-18T05:21:14;18.73;;;13.03;;
39936;SDS011;27803;42.740;23.340;2022-12-18T05:23:39;19.43;;;13.40;;
39936;SDS011;27803;42.740;23.340;2022-12-18T05:26:05;19.87;;;13.83;;
39936;SDS011;27803;42.740;23.340;2022-12-18T05:28:32;20.33;;;13.83;;
39936;SDS011;27803;42.740;23.340;2022-12-18T05:30:59;20.83;;;13.73;;
39936;SDS011;27803;42.740;23.340;2022-12-18T05:33:28;21.13;;;13.87;;
39936;SDS011;27803;42.740;23.340;2022-12-18T05:35:56;19.43;;;14.00;;
39936;SDS011;27803;42.740;23.340;2022-12-18T05:38:27;21.07;;;14.10;;
39936;SDS011;27803;42.740;23.340;2022-12-18T05:40:53;22.23;;;15.20;;
39936;SDS011;27803;42.740;23.340;2022-12-18T05:43:19;18.97;;;14.10;;
39936;SDS011;27803;42.740;23.340;2022-12-18T05:45:49;22.73;;;14.87;;
39936;SDS011;27803;42.740;23.340;2022-12-18T05:48:16;21.47;;;14.23;;
39936;SDS011;27803;42.740;23.340;2022-12-18T05:50:42;20.70;;;15.20;;
39936;SDS011;27803;42.740;23.340;2022-12-18T05:53:10;24.77;;;16.03;;
39936;SDS011;27803;42.740;23.340;2022-12-18T05:55:37;23.10;;;15.17;;
39936;SDS011;27803;42.740;23.340;2022-12-18T05:58:04;21.63;;;14.50;;
39936;SDS011;27803;42.740;23.340;2022-12-18T06:00:32;20.57;;;14.13;;
39936;SDS011;27803;42.740;23.340;2022-12-18T06:03:00;21.13;;;15.27;;
39936;SDS011;27803;42.740;23.340;2022-12-18T06:05:26;19.20;;;13.77;;
39936;SDS011;27803;42.740;23.340;2022-12-18T06:07:52;18.63;;;13.30;;
39936;SDS011;27803;42.740;23.340;2022-12-18T06:10:17;20.97;;;14.30;;
39936;SDS011;27803;42.740;23.340;2022-12-18T06:12:43;20.57;;;14.83;;
39936;SDS011;27803;42.740;23.340;2022-12-18T06:15:09;19.60;;;14.00;;
39936;SDS011;27803;42.740;23.340;2022-12-18T06:17:36;19.40;;;13.23;;
39936;SDS011;27803;42.740;23.340;2022-12-18T06:20:02;21.77;;;14.20;;
39936;SDS011;27803;42.740;23.340;2022-12-18T06:22:30;23.23;;;15.30;;
39936;SDS011;27803;42.740;23.340;2022-12-18T06:24:57;23.93;;;15.87;;
39936;SDS011;27803;42.740;23.340;2022-12-18T06:27:22;22.67;;;15.17;;
39936;SDS011;27803;42.740;23.340;2022-12-18T06:29:48;22.53;;;15.63;;
39936;SDS011;27803;42.740;23.340;2022-12-18T06:32:13;21.47;;;14.43;;
39936;SDS011;27803;42.740;23.340;2022-12-18T06:34:38;21.63;;;13.67;;
39936;SDS011;27803;42.740;23.340;2022-12-18T06:37:04;23.30;;;15.33;;
39936;SDS011;27803;42.740;23.340;2022-12-18T06:39:29;20.83;;;14.40;;
39936;SDS011;27803;42.740;23.340;2022-12-18T06:41:54;22.13;;;16.03;;
39936;SDS011;27803;42.740;23.340;2022-12-18T06:44:20;25.33;;;17.30;;
39936;SDS011;27803;42.740;23.340;2022-12-18T06:46:45;40.47;;;23.83;;
39936;SDS011;27803;42.740;23.340;2022-12-18T06:49:11;38.67;;;24.73;;
39936;SDS011;27803;42.740;23.340;2022-12-18T06:51:36;34.33;;;20.93;;
39936;SDS011;27803;42.740;23.340;2022-12-18T06:54:02;37.17;;;27.60;;
39936;SDS011;27803;42.740;23.340;2022-12-18T06:56:27;25.20;;;17.03;;
39936;SDS011;27803;42.740;23.340;2022-12-18T06:58:53;24.73;;;17.50;;
39936;SDS011;27803;42.740;23.340;2022-12-18T07:01:19;21.43;;;15.60;;
39936;SDS011;27803;42.740;23.340;2022-12-18T07:03:45;25.60;;;15.97;;
39936;SDS011;27803;42.740;23.340;2022-12-18T07:06:15;23.13;;;16.27;;
39936;SDS011;27803;42.740;23.340;2022-12-18T07:08:43;23.27;;;15.70;;
39936;SDS011;27803;42.740;23.340;2022-12-18T07:11:09;21.27;;;15.33;;
39936;SDS011;27803;42.740;23.340;2022-12-18T07:13:34;24.37;;;17.77;;
39936;SDS011;27803;42.740;23.340;2022-12-18T07:16:03;20.07;;;13.97;;
39936;SDS011;27803;42.740;23.340;2022-12-18T07:18:39;20.90;;;14.67;;
39936;SDS011;27803;42.740;23.340;2022-12-18T07:21:06;22.47;;;15.13;;
39936;SDS011;27803;42.740;23.340;2022-12-18T07:23:33;19.97;;;14.07;;
39936;SDS011;27803;42.740;23.340;2022-12-18T07:26:00;21.13;;;14.80;;
39936;SDS011;27803;42.740;23.340;2022-12-18T07:28:37;23.80;;;15.10;;
39936;SDS011;27803;42.740;23.340;2022-12-18T07:31:08;23.27;;;14.97;;
39936;SDS011;27803;42.740;23.340;2022-12-18T07:33:35;23.70;;;15.10;;
39936;SDS011;27803;42.740;23.340;2022-12-18T07:36:04;55.03;;;35.33;;
39936;SDS011;27803;42.740;23.340;2022-12-18T07:38:31;32.57;;;24.23;;
39936;SDS011;27803;42.740;23.340;2022-12-18T07:41:01;25.10;;;18.13;;
39936;SDS011;27803;42.740;23.340;2022-12-18T07:43:28;24.30;;;15.70;;
39936;SDS011;27803;42.740;23.340;2022-12-18T07:45:54;23.13;;;14.63;;
39936;SDS011;27803;42.740;23.340;2022-12-18T07:48:19;22.37;;;16.03;;
39936;SDS011;27803;42.740;23.340;2022-12-18T07:50:45;25.17;;;17.03;;
39936;SDS011;27803;42.740;23.340;2022-12-18T07:53:10;24.40;;;17.27;;
39936;SDS011;27803;42.740;23.340;2022-12-18T07:55:36;22.20;;;15.40;;
39936;SDS011;27803;42.740;23.340;2022-12-18T07:58:02;24.77;;;17.17;;
39936;SDS011;27803;42.740;23.340;2022-12-18T08:00:28;22.30;;;15.90;;
39936;SDS011;27803;42.740;23.340;2022-12-18T08:02:54;24.20;;;16.73;;
39936;SDS011;27803;42.740;23.340;2022-12-18T08:05:20;25.43;;;18.13;;
39936;SDS011;27803;42.740;23.340;2022-12-18T08:07:45;23.90;;;15.53;;
39936;SDS011;27803;42.740;23.340;2022-12-18T08:10:11;23.40;;;16.00;;
39936;SDS011;27803;42.740;23.340;2022-12-18T08:12:36;22.90;;;15.40;;
39936;SDS011;27803;42.740;23.340;2022-12-18T08:15:02;21.90;;;14.97;;
39936;SDS011;27803;42.740;23.340;2022-12-18T08:17:27;21.93;;;15.30;;
39936;SDS011;27803;42.740;23.340;2022-12-18T08:19:52;23.70;;;16.00;;
39936;SDS011;27803;42.740;23.340;2022-12-18T08:22:18;25.10;;;16.37;;
39936;SDS011;27803;42.740;23.340;2022-12-18T08:24:43;29.40;;;18.00;;
39936;SDS011;27803;42.740;23.340;2022-12-18T08:27:10;25.07;;;16.60;;
39936;SDS011;27803;42.740;23.340;2022-12-18T08:29:35;27.80;;;16.27;;
39936;SDS011;27803;42.740;23.340;2022-12-18T08:32:01;35.27;;;24.57;;
39936;SDS011;27803;42.740;23.340;2022-12-18T08:34:26;24.80;;;15.90;;
39936;SDS011;27803;42.740;23.340;2022-12-18T08:36:51;24.50;;;15.47;;
39936;SDS011;27803;42.740;23.340;2022-12-18T08:39:17;23.90;;;16.27;;
39936;SDS011;27803;42.740;23.340;2022-12-18T08:41:42;26.77;;;16.30;;
39936;SDS011;27803;42.740;23.340;2022-12-18T08:44:28;29.50;;;16.67;;
39936;SDS011;27803;42.740;23.340;2022-12-18T08:47:02;27.10;;;18.83;;
39936;SDS011;27803;42.740;23.340;2022-12-18T08:49:27;41.50;;;27.10;;
39936;SDS011;27803;42.740;23.340;2022-12-18T08:51:54;24.73;;;14.70;;
39936;SDS011;27803;42.740;23.340;2022-12-18T08:54:20;19.87;;;14.40;;
39936;SDS011;27803;42.740;23.340;2022-12-18T08:56:45;25.23;;;15.73;;
39936;SDS011;27803;42.740;23.340;2022-12-18T08:59:10;20.57;;;14.50;;
39936;SDS011;27803;42.740;23.340;2022-12-18T09:01:36;36.60;;;24.13;;
39936;SDS011;27803;42.740;23.340;2022-12-18T09:04:01;30.77;;;19.50;;
39936;SDS011;27803;42.740;23.340;2022-12-18T09:06:27;37.20;;;23.07;;
39936;SDS011;27803;42.740;23.340;2022-12-18T09:08:52;29.80;;;20.53;;
39936;SDS011;27803;42.740;23.340;2022-12-18T09:11:22;30.50;;;20.70;;
39936;SDS011;27803;42.740;23.340;2022-12-18T09:13:49;32.30;;;20.90;;
39936;SDS011;27803;42.740;23.340;2022-12-18T09:16:15;28.40;;;19.03;;
39936;SDS011;27803;42.740;23.340;2022-12-18T09:18:41;34.67;;;23.07;;
39936;SDS011;27803;42.740;23.340;2022-12-18T09:21:10;26.23;;;17.77;;
39936;SDS011;27803;42.740;23.340;2022-12-18T09:23:39;25.97;;;17.90;;
39936;SDS011;27803;42.740;23.340;2022-12-18T09:26:05;24.83;;;17.03;;
39936;SDS011;27803;42.740;23.340;2022-12-18T09:28:31;27.70;;;18.93;;
39936;SDS011;27803;42.740;23.340;2022-12-18T09:30:57;25.47;;;16.30;;
39936;SDS011;27803;42.740;23.340;2022-12-18T09:33:23;25.80;;;16.33;;
39936;SDS011;27803;42.740;23.340;2022-12-18T09:35:49;24.17;;;16.60;;
39936;SDS011;27803;42.740;23.340;2022-12-18T09:38:15;22.57;;;15.77;;
39936;SDS011;27803;42.740;23.340;2022-12-18T09:40:43;22.80;;;14.93;;
39936;SDS011;27803;42.740;23.340;2022-12-18T09:43:17;25.50;;;16.57;;
39936;SDS011;27803;42.740;23.340;2022-12-18T09:45:56;28.33;;;18.73;;
39936;SDS011;27803;42.740;23.340;2022-12-18T09:48:37;25.23;;;16.77;;
39936;SDS011;27803;42.740;23.340;2022-12-18T09:51:15;30.00;;;18.37;;
39936;SDS011;27803;42.740;23.340;2022-12-18T09:53:50;25.90;;;17.93;;
39936;SDS011;27803;42.740;23.340;2022-12-18T09:56:20;23.93;;;16.23;;
39936;SDS011;27803;42.740;23.340;2022-12-18T10:01:14;27.90;;;17.50;;
39936;SDS011;27803;42.740;23.340;2022-12-18T10:03:45;26.20;;;17.20;;
39936;SDS011;27803;42.740;23.340;2022-12-18T10:06:15;31.10;;;22.03;;
39936;SDS011;27803;42.740;23.340;2022-12-18T10:08:53;31.33;;;19.43;;
39936;SDS011;27803;42.740;23.340;2022-12-18T10:16:54;27.90;;;18.00;;
39936;SDS011;27803;42.740;23.340;2022-12-18T10:22:35;22.97;;;14.50;;
39936;SDS011;27803;42.740;23.340;2022-12-18T10:27:57;26.07;;;15.07;;
39936;SDS011;27803;42.740;23.340;2022-12-18T10:30:29;24.20;;;16.83;;
39936;SDS011;27803;42.740;23.340;2022-12-18T10:32:54;25.07;;;16.00;;
39936;SDS011;27803;42.740;23.340;2022-12-18T10:35:26;28.60;;;17.47;;
39936;SDS011;27803;42.740;23.340;2022-12-18T10:38:20;28.90;;;20.17;;
39936;SDS011;27803;42.740;23.340;2022-12-18T10:45:59;27.03;;;16.33;;
39936;SDS011;27803;42.740;23.340;2022-12-18T10:48:48;24.43;;;15.83;;
39936;SDS011;27803;42.740;23.340;2022-12-18T10:53:59;35.40;;;23.63;;
39936;SDS011;27803;42.740;23.340;2022-12-18T10:56:33;23.83;;;16.10;;
39936;SDS011;27803;42.740;23.340;2022-12-18T10:59:01;27.57;;;18.17;;
39936;SDS011;27803;42.740;23.340;2022-12-18T11:01:31;24.40;;;16.43;;
39936;SDS011;27803;42.740;23.340;2022-12-18T11:04:13;41.20;;;29.57;;
39936;SDS011;27803;42.740;23.340;2022-12-18T11:07:04;39.63;;;26.93;;
39936;SDS011;27803;42.740;23.340;2022-12-18T11:09:31;34.13;;;22.93;;
39936;SDS011;27803;42.740;23.340;2022-12-18T11:11:59;22.87;;;15.23;;
39936;SDS011;27803;42.740;23.340;2022-12-18T11:14:27;42.20;;;23.33;;
39936;SDS011;27803;42.740;23.340;2022-12-18T11:16:55;30.87;;;17.97;;
39936;SDS011;27803;42.740;23.340;2022-12-18T11:19:31;26.37;;;15.93;;
39936;SDS011;27803;42.740;23.340;2022-12-18T11:22:03;33.57;;;18.77;;
39936;SDS011;27803;42.740;23.340;2022-12-18T11:24:49;38.70;;;21.00;;
39936;SDS011;27803;42.740;23.340;2022-12-18T11:27:20;54.37;;;25.60;;
39936;SDS011;27803;42.740;23.340;2022-12-18T11:29:46;28.20;;;17.77;;
39936;SDS011;27803;42.740;23.340;2022-12-18T11:35:00;35.87;;;22.73;;
39936;SDS011;27803;42.740;23.340;2022-12-18T11:37:29;20.63;;;14.53;;
39936;SDS011;27803;42.740;23.340;2022-12-18T11:40:01;24.47;;;16.90;;
39936;SDS011;27803;42.740;23.340;2022-12-18T11:42:35;46.43;;;34.40;;
39936;SDS011;27803;42.740;23.340;2022-12-18T11:47:45;41.03;;;28.83;;
39936;SDS011;27803;42.740;23.340;2022-12-18T11:53:22;22.80;;;14.77;;
39936;SDS011;27803;42.740;23.340;2022-12-18T11:59:08;23.37;;;14.53;;
39936;SDS011;27803;42.740;23.340;2022-12-18T12:01:51;23.93;;;15.87;;
39936;SDS011;27803;42.740;23.340;2022-12-18T12:12:48;28.27;;;16.97;;
39936;SDS011;27803;42.740;23.340;2022-12-18T12:18:13;24.73;;;17.07;;
39936;SDS011;27803;42.740;23.340;2022-12-18T12:26:16;21.67;;;14.40;;
39936;SDS011;27803;42.740;23.340;2022-12-18T12:34:21;30.60;;;18.90;;
39936;SDS011;27803;42.740;23.340;2022-12-18T12:39:33;21.33;;;14.90;;
39936;SDS011;27803;42.740;23.340;2022-12-18T12:42:05;25.60;;;15.57;;
39936;SDS011;27803;42.740;23.340;2022-12-18T12:44:59;33.70;;;19.70;;
39936;SDS011;27803;42.740;23.340;2022-12-18T12:47:31;27.80;;;18.30;;
39936;SDS011;27803;42.740;23.340;2022-12-18T12:50:03;25.43;;;16.50;;
39936;SDS011;27803;42.740;23.340;2022-12-18T12:52:36;32.03;;;20.40;;
39936;SDS011;27803;42.740;23.340;2022-12-18T12:55:15;28.27;;;17.97;;
39936;SDS011;27803;42.740;23.340;2022-12-18T12:58:10;25.87;;;16.37;;
39936;SDS011;27803;42.740;23.340;2022-12-18T13:00:56;28.50;;;17.57;;
39936;SDS011;27803;42.740;23.340;2022-12-18T13:03:42;30.73;;;17.97;;
39936;SDS011;27803;42.740;23.340;2022-12-18T13:09:00;35.80;;;19.60;;
39936;SDS011;27803;42.740;23.340;2022-12-18T13:11:30;23.93;;;15.33;;
39936;SDS011;27803;42.740;23.340;2022-12-18T13:14:46;20.53;;;13.63;;
39936;SDS011;27803;42.740;23.340;2022-12-18T13:19:40;25.00;;;17.10;;
39936;SDS011;27803;42.740;23.340;2022-12-18T13:22:22;27.93;;;18.70;;
39936;SDS011;27803;42.740;23.340;2022-12-18T13:24:50;23.17;;;15.90;;
39936;SDS011;27803;42.740;23.340;2022-12-18T13:35:39;26.83;;;16.53;;
39936;SDS011;27803;42.740;23.340;2022-12-18T13:38:20;25.10;;;16.80;;
39936;SDS011;27803;42.740;23.340;2022-12-18T13:45:49;26.50;;;17.57;;
39936;SDS011;27803;42.740;23.340;2022-12-18T13:48:21;24.50;;;17.10;;
39936;SDS011;27803;42.740;23.340;2022-12-18T13:50:51;23.57;;;16.00;;
39936;SDS011;27803;42.740;23.340;2022-12-18T13:53:24;33.83;;;19.77;;
39936;SDS011;27803;42.740;23.340;2022-12-18T13:55:53;27.00;;;18.47;;
39936;SDS011;27803;42.740;23.340;2022-12-18T13:58:19;26.57;;;17.60;;
39936;SDS011;27803;42.740;23.340;2022-12-18T14:00:44;23.80;;;15.57;;
39936;SDS011;27803;42.740;23.340;2022-12-18T14:03:21;27.63;;;17.00;;
39936;SDS011;27803;42.740;23.340;2022-12-18T14:05:55;26.57;;;18.60;;
39936;SDS011;27803;42.740;23.340;2022-12-18T14:08:23;25.23;;;15.23;;
39936;SDS011;27803;42.740;23.340;2022-12-18T14:10:52;30.47;;;20.73;;
39936;SDS011;27803;42.740;23.340;2022-12-18T14:13:26;25.20;;;16.40;;
39936;SDS011;27803;42.740;23.340;2022-12-18T14:15:54;36.43;;;20.30;;
39936;SDS011;27803;42.740;23.340;2022-12-18T14:20:51;46.10;;;23.43;;
39936;SDS011;27803;42.740;23.340;2022-12-18T14:23:30;48.87;;;25.03;;
39936;SDS011;27803;42.740;23.340;2022-12-18T14:26:19;23.53;;;14.77;;
39936;SDS011;27803;42.740;23.340;2022-12-18T14:28:47;34.37;;;19.23;;
39936;SDS011;27803;42.740;23.340;2022-12-18T14:31:19;24.90;;;15.63;;
39936;SDS011;27803;42.740;23.340;2022-12-18T14:33:46;20.63;;;13.40;;
39936;SDS011;27803;42.740;23.340;2022-12-18T14:36:14;21.47;;;15.23;;
39936;SDS011;27803;42.740;23.340;2022-12-18T14:38:42;19.07;;;13.43;;
39936;SDS011;27803;42.740;23.340;2022-12-18T14:41:14;19.00;;;12.70;;
39936;SDS011;27803;42.740;23.340;2022-12-18T14:43:41;25.90;;;16.40;;
39936;SDS011;27803;42.740;23.340;2022-12-18T14:51:31;29.80;;;18.53;;
39936;SDS011;27803;42.740;23.340;2022-12-18T14:53:59;20.17;;;12.77;;
39936;SDS011;27803;42.740;23.340;2022-12-18T14:56:36;27.87;;;19.53;;
39936;SDS011;27803;42.740;23.340;2022-12-18T14:59:21;22.23;;;15.40;;
39936;SDS011;27803;42.740;23.340;2022-12-18T15:04:41;20.93;;;13.93;;
39936;SDS011;27803;42.740;23.340;2022-12-18T15:07:22;19.77;;;13.13;;
39936;SDS011;27803;42.740;23.340;2022-12-18T15:12:39;18.03;;;12.43;;
39936;SDS011;27803;42.740;23.340;2022-12-18T15:18:00;18.83;;;13.17;;
39936;SDS011;27803;42.740;23.340;2022-12-18T15:23:22;20.60;;;13.50;;
39936;SDS011;27803;42.740;23.340;2022-12-18T15:26:08;23.27;;;14.77;;
39936;SDS011;27803;42.740;23.340;2022-12-18T15:31:31;24.57;;;13.57;;
39936;SDS011;27803;42.740;23.340;2022-12-18T15:36:32;26.87;;;16.27;;
39936;SDS011;27803;42.740;23.340;2022-12-18T15:39:01;25.77;;;15.13;;
39936;SDS011;27803;42.740;23.340;2022-12-18T15:41:27;25.83;;;14.00;;
39936;SDS011;27803;42.740;23.340;2022-12-18T15:43:53;28.60;;;14.90;;
39936;SDS011;27803;42.740;23.340;2022-12-18T15:46:22;23.37;;;14.43;;
39936;SDS011;27803;42.740;23.340;2022-12-18T15:48:52;22.73;;;14.23;;
39936;SDS011;27803;42.740;23.340;2022-12-18T15:51:21;25.00;;;14.27;;
39936;SDS011;27803;42.740;23.340;2022-12-18T15:53:47;23.40;;;14.17;;
39936;SDS011;27803;42.740;23.340;2022-12-18T15:56:15;23.40;;;14.67;;
39936;SDS011;27803;42.740;23.340;2022-12-18T15:58:59;23.43;;;14.03;;
39936;SDS011;27803;42.740;23.340;2022-12-18T16:01:27;26.77;;;15.00;;
39936;SDS011;27803;42.740;23.340;2022-12-18T16:03:54;24.80;;;14.73;;
39936;SDS011;27803;42.740;23.340;2022-12-18T16:06:20;25.77;;;15.67;;
39936;SDS011;27803;42.740;23.340;2022-12-18T16:08:45;29.33;;;16.07;;
39936;SDS011;27803;42.740;23.340;2022-12-18T16:11:29;30.90;;;17.03;;
39936;SDS011;27803;42.740;23.340;2022-12-18T16:16:54;24.13;;;14.70;;
39936;SDS011;27803;42.740;23.340;2022-12-18T16:19:22;25.20;;;16.27;;
39936;SDS011;27803;42.740;23.340;2022-12-18T16:21:48;27.47;;;16.10;;
39936;SDS011;27803;42.740;23.340;2022-12-18T16:24:16;24.23;;;15.27;;
39936;SDS011;27803;42.740;23.340;2022-12-18T16:26:43;36.57;;;20.00;;
39936;SDS011;27803;42.740;23.340;2022-12-18T16:29:09;26.77;;;16.73;;
39936;SDS011;27803;42.740;23.340;2022-12-18T16:31:35;25.23;;;15.70;;
39936;SDS011;27803;42.740;23.340;2022-12-18T16:34:11;32.73;;;22.40;;